createdAt,value
2019-05-22T00:00:11.943Z,28.3
2019-05-22T00:01:14.413Z,28.3
2019-05-22T00:02:16.639Z,28.7
2019-05-22T00:03:19.060Z,28.6
2019-05-22T00:04:21.480Z,28.6
2019-05-22T00:05:23.636Z,28.8
2019-05-22T00:06:25.816Z,28.4
2019-05-22T00:07:27.959Z,28.7
2019-05-22T00:08:30.389Z,28.5
2019-05-22T00:09:32.919Z,28.5
2019-05-22T00:10:35.058Z,28.7
2019-05-22T00:11:37.234Z,28.6
2019-05-22T00:12:46.396Z,28.5
2019-05-22T00:13:44.647Z,28.6
2019-05-22T00:14:46.807Z,28.6
2019-05-22T00:15:49.249Z,28.6
2019-05-22T00:16:50.837Z,28.6
2019-05-22T00:17:52.725Z,29.1
2019-05-22T00:18:55.156Z,28.7
2019-05-22T00:19:57.585Z,28.6
2019-05-22T00:20:59.510Z,28.6
2019-05-22T00:22:02.019Z,29
2019-05-22T00:23:04.214Z,28.7
2019-05-22T00:24:06.697Z,28.9
2019-05-22T00:25:09.227Z,28.7
2019-05-22T00:26:11.658Z,28.8
2019-05-22T00:27:13.809Z,28.7
2019-05-22T00:28:15.698Z,28.8
2019-05-22T00:29:17.859Z,28.6
2019-05-22T00:30:20.292Z,29
2019-05-22T00:31:22.729Z,28.9
2019-05-22T00:32:24.897Z,29
2019-05-22T00:33:26.768Z,28.6
2019-05-22T00:34:29.187Z,28.8
2019-05-22T00:35:31.344Z,28.7
2019-05-22T00:36:33.493Z,28.8
2019-05-22T00:37:35.919Z,29.1
2019-05-22T00:38:38.056Z,28.7
2019-05-22T00:39:40.489Z,28.9
2019-05-22T00:40:42.643Z,28.8
2019-05-22T00:41:44.852Z,28.8
2019-05-22T00:43:02.853Z,28.4
2019-05-22T00:43:52.284Z,28.6
2019-05-22T00:44:54.726Z,28.9
2019-05-22T00:45:57.170Z,28.6
2019-05-22T00:46:59.387Z,29
2019-05-22T00:48:01.849Z,28.8
2019-05-22T00:49:03.728Z,28.5
2019-05-22T00:50:06.513Z,28.8
2019-05-22T00:51:08.934Z,28.5
2019-05-22T00:52:11.087Z,28.9
2019-05-22T00:53:13.257Z,29
2019-05-22T00:54:15.417Z,28.7
2019-05-22T00:55:18.030Z,29
2019-05-22T00:56:20.515Z,28.7
2019-05-22T00:57:22.946Z,28.9
2019-05-22T00:59:42.247Z,28.6
2019-05-22T01:00:44.427Z,29.2
2019-05-22T01:01:46.633Z,28.8
2019-05-22T01:02:48.807Z,28.7
2019-05-22T01:03:51.867Z,28.8
2019-05-22T01:04:54.295Z,29
2019-05-22T01:05:56.445Z,28.9
2019-05-22T01:06:58.874Z,28.8
2019-05-22T01:08:01.066Z,28.6
2019-05-22T01:09:02.940Z,28.6
2019-05-22T01:10:05.100Z,28.8
2019-05-22T01:11:08.823Z,29.1
2019-05-22T01:12:11.355Z,28.6
2019-05-22T01:13:13.850Z,28.9
2019-05-22T01:14:16.294Z,29.1
2019-05-22T01:15:18.455Z,29.1
2019-05-22T01:16:20.641Z,29.2
2019-05-22T01:17:22.775Z,28.9
2019-05-22T01:18:24.409Z,29.2
2019-05-22T01:19:26.833Z,29.1
2019-05-22T01:20:28.981Z,29
2019-05-22T01:21:31.175Z,29
2019-05-22T01:22:33.071Z,29.4
2019-05-22T01:23:35.504Z,28.8
2019-05-22T01:24:37.393Z,28.6
2019-05-22T01:25:39.827Z,29.1
2019-05-22T01:26:42.274Z,28.8
2019-05-22T01:27:44.451Z,28.9
2019-05-22T01:28:46.337Z,28.7
2019-05-22T01:29:48.777Z,28.9
2019-05-22T01:30:50.924Z,29
2019-05-22T01:31:53.364Z,28.8
2019-05-22T01:32:55.796Z,28.9
2019-05-22T01:33:57.955Z,29.1
2019-05-22T01:35:00.404Z,28.8
2019-05-22T01:36:02.833Z,28.6
2019-05-22T01:37:04.992Z,28.7
2019-05-22T01:38:07.430Z,28.9
2019-05-22T01:39:09.578Z,29
2019-05-22T01:40:11.997Z,28.8
2019-05-22T01:41:14.438Z,29.1
2019-05-22T01:42:16.868Z,29
2019-05-22T01:43:19.297Z,29
2019-05-22T01:44:21.725Z,29.1
2019-05-22T01:45:23.623Z,28.8
2019-05-22T01:46:26.083Z,29.2
2019-05-22T01:47:28.018Z,29
2019-05-22T01:48:30.648Z,29.1
2019-05-22T01:49:32.812Z,28.7
2019-05-22T01:50:34.942Z,29.2
2019-05-22T01:51:37.350Z,29.1
2019-05-22T01:52:39.227Z,28.8
2019-05-22T01:53:41.388Z,29
2019-05-22T01:54:43.259Z,29
2019-05-22T01:55:45.449Z,29
2019-05-22T01:56:47.885Z,29.1
2019-05-22T01:57:50.062Z,29.1
2019-05-22T01:58:51.921Z,28.9
2019-05-22T01:59:54.085Z,29.1
2019-05-22T02:00:56.506Z,28.9
2019-05-22T02:01:58.674Z,29.1
2019-05-22T02:03:01.444Z,29.1
2019-05-22T02:04:03.343Z,29
2019-05-22T02:05:05.508Z,28.8
2019-05-22T02:06:07.387Z,29
2019-05-22T02:07:09.809Z,28.6
2019-05-22T02:08:11.955Z,29.1
2019-05-22T02:09:14.114Z,28.9
2019-05-22T02:10:16.262Z,29
2019-05-22T02:11:18.398Z,29.1
2019-05-22T02:12:20.555Z,28.8
2019-05-22T02:13:23.035Z,28.9
2019-05-22T02:14:25.538Z,28.9
2019-05-22T02:15:27.980Z,28.9
2019-05-22T02:16:30.403Z,28.6
2019-05-22T02:17:32.838Z,28.8
2019-05-22T02:18:35.260Z,28.8
2019-05-22T02:19:37.697Z,28.8
2019-05-22T02:20:40.487Z,28.8
2019-05-22T02:21:42.635Z,28.9
2019-05-22T02:22:44.497Z,29.3
2019-05-22T02:23:46.667Z,29.1
2019-05-22T02:24:48.838Z,28.8
2019-05-22T02:25:50.715Z,29.1
2019-05-22T02:26:52.879Z,29
2019-05-22T02:27:54.756Z,28.9
2019-05-22T02:28:57.185Z,29
2019-05-22T02:29:59.334Z,29.3
2019-05-22T02:31:01.522Z,28.8
2019-05-22T02:32:03.960Z,28.8
2019-05-22T02:33:05.810Z,28.8
2019-05-22T02:34:08.010Z,28.7
2019-05-22T02:35:10.452Z,29.5
2019-05-22T02:36:12.894Z,29
2019-05-22T02:37:15.020Z,29
2019-05-22T02:38:17.443Z,29
2019-05-22T02:39:19.887Z,29
2019-05-22T02:40:22.305Z,28.8
2019-05-22T02:41:25.085Z,28.7
2019-05-22T02:42:27.510Z,28.8
2019-05-22T02:43:29.955Z,28.8
2019-05-22T02:44:32.390Z,28.9
2019-05-22T02:45:34.817Z,29.1
2019-05-22T02:46:37.285Z,29
2019-05-22T02:47:39.169Z,29
2019-05-22T02:48:42.363Z,29
2019-05-22T02:49:44.674Z,29.1
2019-05-22T02:50:47.110Z,28.8
2019-05-22T02:51:49.263Z,29.2
2019-05-22T02:52:51.399Z,29
2019-05-22T02:53:53.296Z,29
2019-05-22T02:54:55.720Z,28.8
2019-05-22T02:55:57.895Z,29.2
2019-05-22T02:57:00.321Z,28.7
2019-05-22T02:58:02.908Z,29.1
2019-05-22T02:59:04.766Z,28.9
2019-05-22T03:00:06.930Z,28.7
2019-05-22T03:01:09.356Z,29
2019-05-22T03:02:11.557Z,29.1
2019-05-22T03:03:14.023Z,29.1
2019-05-22T03:04:16.454Z,29.1
2019-05-22T03:05:18.631Z,28.6
2019-05-22T03:06:21.087Z,28.8
2019-05-22T03:07:23.626Z,29.1
2019-05-22T03:08:25.512Z,28.8
2019-05-22T03:09:27.685Z,28.7
2019-05-22T03:10:29.836Z,28.9
2019-05-22T03:11:35.144Z,29
2019-05-22T03:12:36.982Z,29
2019-05-22T03:13:40.087Z,28.9
2019-05-22T03:14:42.222Z,28.8
2019-05-22T03:15:44.652Z,28.8
2019-05-22T03:16:47.089Z,28.5
2019-05-22T03:17:49.585Z,28.7
2019-05-22T03:19:07.782Z,28.8
2019-05-22T03:19:56.733Z,28.7
2019-05-22T03:20:58.885Z,28.8
2019-05-22T03:22:01.322Z,28.4
2019-05-22T03:23:03.755Z,28.6
2019-05-22T03:24:06.214Z,28.6
2019-05-22T03:25:08.107Z,28.2
2019-05-22T03:26:10.588Z,28.5
2019-05-22T03:27:13.193Z,28.4
2019-05-22T03:28:15.346Z,28.2
2019-05-22T03:29:17.815Z,28.7
2019-05-22T03:30:20.308Z,28.3
2019-05-22T03:31:22.818Z,28.2
2019-05-22T03:32:25.328Z,28.2
2019-05-22T03:33:27.796Z,28.5
2019-05-22T03:34:29.949Z,28.2
2019-05-22T03:35:32.999Z,28.3
2019-05-22T03:36:35.154Z,28.2
2019-05-22T03:37:37.326Z,28.2
2019-05-22T03:38:39.192Z,28.3
2019-05-22T03:39:41.383Z,28.3
2019-05-22T03:40:43.808Z,28.2
2019-05-22T03:41:46.044Z,28.1
2019-05-22T03:42:48.206Z,28.1
2019-05-22T03:43:50.366Z,28.2
2019-05-22T03:44:52.259Z,28.3
2019-05-22T03:45:54.153Z,28.3
2019-05-22T03:46:59.362Z,28
2019-05-22T03:48:01.374Z,28.1
2019-05-22T03:49:04.300Z,28.3
2019-05-22T03:50:07.176Z,28.1
2019-05-22T03:51:09.353Z,27.8
2019-05-22T03:52:11.781Z,28.2
2019-05-22T03:53:14.228Z,28.1
2019-05-22T03:54:16.661Z,28.2
2019-05-22T03:55:19.109Z,28.2
2019-05-22T03:56:21.544Z,28.2
2019-05-22T03:57:23.725Z,28.2
2019-05-22T03:58:26.149Z,28.3
2019-05-22T03:59:28.115Z,28.3
2019-05-22T04:00:30.539Z,28.1
2019-05-22T04:01:32.977Z,28.4
2019-05-22T04:02:35.402Z,27.9
2019-05-22T04:03:37.861Z,28.2
2019-05-22T04:04:40.307Z,28.2
2019-05-22T04:05:42.758Z,28.1
2019-05-22T04:06:45.173Z,28
2019-05-22T04:07:47.606Z,28.3
2019-05-22T04:08:49.753Z,27.9
2019-05-22T04:09:51.955Z,28.3
2019-05-22T04:10:54.379Z,28
2019-05-22T04:11:56.891Z,28.2
2019-05-22T04:12:59.326Z,27.8
2019-05-22T04:14:01.685Z,28.1
2019-05-22T04:15:03.835Z,28
2019-05-22T04:16:06.257Z,28
2019-05-22T04:17:08.689Z,28
2019-05-22T04:18:10.896Z,28
2019-05-22T04:19:13.489Z,28.1
2019-05-22T04:20:15.917Z,28
2019-05-22T04:21:18.555Z,28.1
2019-05-22T04:22:20.698Z,28.1
2019-05-22T04:23:23.120Z,28
2019-05-22T04:24:25.562Z,28.1
2019-05-22T04:25:28.009Z,28.1
2019-05-22T04:26:30.169Z,28
2019-05-22T04:27:32.777Z,28
2019-05-22T04:28:34.988Z,28.1
2019-05-22T04:29:37.582Z,28.2
2019-05-22T04:30:39.846Z,28.2
2019-05-22T04:31:42.078Z,28.2
2019-05-22T04:32:45.127Z,27.8
2019-05-22T04:33:47.297Z,27.8
2019-05-22T04:34:49.715Z,28.1
2019-05-22T04:35:51.865Z,28.1
2019-05-22T04:36:54.024Z,28
2019-05-22T04:37:56.193Z,28
2019-05-22T04:38:58.395Z,27.8
2019-05-22T04:40:00.997Z,28.1
2019-05-22T04:41:03.652Z,28
2019-05-22T04:42:05.780Z,28.1
2019-05-22T04:43:08.191Z,28.1
2019-05-22T04:44:10.330Z,28.1
2019-05-22T04:45:12.487Z,28.2
2019-05-22T04:46:15.465Z,27.9
2019-05-22T04:47:17.899Z,27.9
2019-05-22T04:48:20.061Z,28
2019-05-22T04:49:22.119Z,27.9
2019-05-22T04:50:24.455Z,28.1
2019-05-22T04:51:26.900Z,28.2
2019-05-22T04:52:29.933Z,28.1
2019-05-22T04:53:33.085Z,28.2
2019-05-22T04:54:35.583Z,28.2
2019-05-22T04:55:37.743Z,28.1
2019-05-22T04:56:39.912Z,28
2019-05-22T04:57:42.353Z,28.1
2019-05-22T04:58:44.776Z,28.1
2019-05-22T04:59:46.947Z,28
2019-05-22T05:00:49.380Z,28.2
2019-05-22T05:01:51.815Z,28.1
2019-05-22T05:02:53.405Z,28.1
2019-05-22T05:03:55.823Z,28
2019-05-22T05:04:58.320Z,27.9
2019-05-22T05:06:00.472Z,27.9
2019-05-22T05:07:06.890Z,28.1
2019-05-22T05:08:09.419Z,27.9
2019-05-22T05:09:11.030Z,28
2019-05-22T05:10:12.918Z,27.9
2019-05-22T05:11:15.944Z,28.1
2019-05-22T05:12:18.383Z,28
2019-05-22T05:13:20.973Z,28
2019-05-22T05:14:23.782Z,27.9
2019-05-22T05:15:26.396Z,27.9
2019-05-22T05:16:28.544Z,28.2
2019-05-22T05:17:30.406Z,28.2
2019-05-22T05:18:32.823Z,27.9
2019-05-22T05:19:35.271Z,27.9
2019-05-22T05:20:37.696Z,27.8
2019-05-22T05:21:39.838Z,27.9
2019-05-22T05:22:42.310Z,27.9
2019-05-22T05:23:44.865Z,28.1
2019-05-22T05:24:46.816Z,28
2019-05-22T05:25:48.992Z,27.8
2019-05-22T05:26:51.434Z,28
2019-05-22T05:27:53.881Z,27.8
2019-05-22T05:28:56.347Z,27.9
2019-05-22T05:29:58.800Z,27.9
2019-05-22T05:31:01.320Z,28
2019-05-22T05:32:03.538Z,28
2019-05-22T05:33:06.015Z,27.7
2019-05-22T05:34:08.185Z,27.8
2019-05-22T05:35:10.684Z,28.1
2019-05-22T05:36:12.823Z,27.9
2019-05-22T05:37:15.270Z,28.2
2019-05-22T05:38:17.799Z,27.9
2019-05-22T05:39:19.958Z,27.9
2019-05-22T05:40:22.414Z,27.9
2019-05-22T05:41:24.845Z,28.2
2019-05-22T05:42:27.278Z,28.1
2019-05-22T05:43:29.707Z,27.9
2019-05-22T05:44:31.887Z,27.8
2019-05-22T05:45:33.513Z,27.8
2019-05-22T05:46:35.941Z,27.9
2019-05-22T05:47:38.394Z,28.1
2019-05-22T05:48:40.825Z,27.9
2019-05-22T05:49:42.997Z,27.9
2019-05-22T05:50:45.426Z,28.1
2019-05-22T05:51:47.315Z,27.9
2019-05-22T05:52:49.763Z,27.9
2019-05-22T05:53:52.207Z,27.8
2019-05-22T05:54:54.365Z,27.7
2019-05-22T05:55:56.794Z,27.9
2019-05-22T05:56:58.964Z,28
2019-05-22T05:58:01.404Z,27.9
2019-05-22T05:59:03.747Z,27.9
2019-05-22T06:00:06.545Z,27.9
2019-05-22T06:01:08.447Z,28
2019-05-22T06:02:11.004Z,27.9
2019-05-22T06:03:13.609Z,28.1
2019-05-22T06:04:16.649Z,28
2019-05-22T06:05:23.422Z,27.9
2019-05-22T06:06:26.485Z,27.9
2019-05-22T06:07:28.928Z,28
2019-05-22T06:08:31.356Z,27.7
2019-05-22T06:09:33.805Z,28
2019-05-22T06:10:36.348Z,27.9
2019-05-22T06:11:38.775Z,27.6
2019-05-22T06:12:41.226Z,27.9
2019-05-22T06:13:43.665Z,28
2019-05-22T06:14:46.167Z,27.9
2019-05-22T06:15:48.598Z,28
2019-05-22T06:16:51.027Z,27.9
2019-05-22T06:17:53.831Z,28
2019-05-22T06:18:57.340Z,27.9
2019-05-22T06:19:59.799Z,27.9
2019-05-22T06:21:04.108Z,27.9
2019-05-22T06:22:06.977Z,27.9
2019-05-22T06:23:09.113Z,27.9
2019-05-22T06:24:11.300Z,27.9
2019-05-22T06:25:13.805Z,28.1
2019-05-22T06:26:16.269Z,27.7
2019-05-22T06:27:18.763Z,28.1
2019-05-22T06:28:21.232Z,27.8
2019-05-22T06:29:27.513Z,27.7
2019-05-22T06:30:28.639Z,28
2019-05-22T06:31:31.084Z,28.2
2019-05-22T06:32:33.326Z,27.9
2019-05-22T06:33:35.758Z,27.8
2019-05-22T06:34:38.177Z,28
2019-05-22T06:35:40.608Z,28
2019-05-22T06:36:43.035Z,27.7
2019-05-22T06:37:45.459Z,27.9
2019-05-22T06:38:47.882Z,28
2019-05-22T06:39:50.311Z,27.9
2019-05-22T06:40:52.744Z,27.8
2019-05-22T06:41:55.180Z,27.9
2019-05-22T06:42:57.587Z,28
2019-05-22T06:44:00.019Z,27.7
2019-05-22T06:45:02.848Z,27.8
2019-05-22T06:46:07.555Z,28.1
2019-05-22T06:47:10.002Z,27.7
2019-05-22T06:48:12.419Z,28.1
2019-05-22T06:49:14.883Z,28
2019-05-22T06:50:17.051Z,28.3
2019-05-22T06:51:19.813Z,28
2019-05-22T06:52:22.315Z,27.8
2019-05-22T06:53:24.475Z,28
2019-05-22T06:54:26.633Z,27.8
2019-05-22T06:55:29.097Z,27.7
2019-05-22T06:56:30.989Z,27.8
2019-05-22T06:57:33.480Z,28
2019-05-22T06:58:36.123Z,28
2019-05-22T06:59:38.302Z,27.9
2019-05-22T07:00:40.190Z,27.9
2019-05-22T07:01:42.357Z,28
2019-05-22T07:02:44.508Z,27.8
2019-05-22T07:03:46.657Z,27.7
2019-05-22T07:04:49.106Z,28
2019-05-22T07:05:51.726Z,28
2019-05-22T07:06:54.164Z,28
2019-05-22T07:07:56.884Z,27.8
2019-05-22T07:08:59.332Z,27.9
2019-05-22T07:10:01.488Z,27.8
2019-05-22T07:11:04.101Z,27.9
2019-05-22T07:12:06.557Z,28
2019-05-22T07:13:08.444Z,27.9
2019-05-22T07:14:10.657Z,27.9
2019-05-22T07:15:13.114Z,28
2019-05-22T07:16:15.546Z,27.8
2019-05-22T07:17:18.012Z,27.9
2019-05-22T07:18:20.458Z,27.9
2019-05-22T07:19:22.625Z,27.8
2019-05-22T07:20:24.780Z,28
2019-05-22T07:21:33.772Z,27.9
2019-05-22T07:22:31.939Z,28
2019-05-22T07:23:34.392Z,27.8
2019-05-22T07:24:36.818Z,27.7
2019-05-22T07:25:39.384Z,27.7
2019-05-22T07:26:41.906Z,28
2019-05-22T07:27:44.311Z,27.7
2019-05-22T07:28:46.768Z,27.9
2019-05-22T07:29:48.667Z,27.8
2019-05-22T07:30:51.091Z,27.8
2019-05-22T07:31:53.581Z,27.5
2019-05-22T07:32:55.771Z,28
2019-05-22T07:33:57.912Z,28
2019-05-22T07:35:00.372Z,28.1
2019-05-22T07:36:09.760Z,28.2
2019-05-22T07:37:07.802Z,28.1
2019-05-22T07:38:10.241Z,27.8
2019-05-22T07:39:12.718Z,28.3
2019-05-22T07:40:15.141Z,28.1
2019-05-22T07:41:19.463Z,27.8
2019-05-22T07:42:21.884Z,27.8
2019-05-22T07:43:24.044Z,27.9
2019-05-22T07:44:26.478Z,27.8
2019-05-22T07:45:28.915Z,27.9
2019-05-22T07:46:31.107Z,27.9
2019-05-22T07:47:33.547Z,27.7
2019-05-22T07:48:35.986Z,28.2
2019-05-22T07:49:38.135Z,28
2019-05-22T07:50:40.303Z,27.8
2019-05-22T07:51:53.600Z,27.9
2019-05-22T07:52:47.916Z,28
2019-05-22T07:53:50.064Z,27.8
2019-05-22T07:54:52.491Z,27.9
2019-05-22T07:55:54.815Z,27.9
2019-05-22T07:56:57.177Z,27.9
2019-05-22T07:57:59.353Z,27.8
2019-05-22T07:59:01.516Z,28
2019-05-22T08:00:03.376Z,27.7
2019-05-22T08:01:05.534Z,27.8
2019-05-22T08:02:08.004Z,27.9
2019-05-22T08:03:09.862Z,27.9
2019-05-22T08:04:12.090Z,27.8
2019-05-22T08:05:14.516Z,27.9
2019-05-22T08:06:16.954Z,27.9
2019-05-22T08:07:19.389Z,28
2019-05-22T08:08:21.822Z,27.8
2019-05-22T08:09:23.998Z,27.7
2019-05-22T08:10:26.542Z,27.8
2019-05-22T08:11:28.701Z,28
2019-05-22T08:12:31.224Z,27.6
2019-05-22T08:13:33.665Z,27.8
2019-05-22T08:14:36.096Z,27.8
2019-05-22T08:15:38.549Z,27.9
2019-05-22T08:16:40.987Z,27.9
2019-05-22T08:17:43.478Z,27.7
2019-05-22T08:18:45.643Z,27.8
2019-05-22T08:19:48.108Z,27.9
2019-05-22T08:20:50.541Z,27.6
2019-05-22T08:22:05.983Z,27.9
2019-05-22T08:22:57.934Z,28.1
2019-05-22T08:23:59.826Z,28
2019-05-22T08:25:02.328Z,27.9
2019-05-22T08:26:04.755Z,27.8
2019-05-22T08:27:07.195Z,27.7
2019-05-22T08:28:09.366Z,27.9
2019-05-22T08:29:11.797Z,27.9
2019-05-22T08:30:13.966Z,27.9
2019-05-22T08:31:16.434Z,27.9
2019-05-22T08:32:18.858Z,27.6
2019-05-22T08:33:21.300Z,28
2019-05-22T08:34:23.718Z,27.8
2019-05-22T08:35:25.888Z,28
2019-05-22T08:36:28.310Z,28.1
2019-05-22T08:37:30.749Z,27.9
2019-05-22T08:38:32.915Z,27.7
2019-05-22T08:39:35.096Z,28.1
2019-05-22T08:40:37.530Z,27.8
2019-05-22T08:41:39.985Z,27.9
2019-05-22T08:42:42.154Z,28
2019-05-22T08:44:03.724Z,27.6
2019-05-22T08:44:49.276Z,27.9
2019-05-22T08:45:51.437Z,27.7
2019-05-22T08:46:54.023Z,28
2019-05-22T08:47:56.469Z,27.9
2019-05-22T08:48:59.162Z,27.8
2019-05-22T08:50:01.070Z,27.8
2019-05-22T08:51:03.963Z,27.7
2019-05-22T08:52:20.837Z,28
2019-05-22T08:53:11.260Z,27.7
2019-05-22T08:54:13.748Z,28
2019-05-22T08:55:16.189Z,27.5
2019-05-22T08:56:18.620Z,27.9
2019-05-22T08:57:21.307Z,27.9
2019-05-22T08:58:23.830Z,28.1
2019-05-22T08:59:26.313Z,27.9
2019-05-22T09:00:28.754Z,27.8
2019-05-22T09:01:31.193Z,27.8
2019-05-22T09:02:33.633Z,27.8
2019-05-22T09:03:36.070Z,27.8
2019-05-22T09:04:38.247Z,28.1
2019-05-22T09:05:40.679Z,28
2019-05-22T09:06:42.824Z,28.1
2019-05-22T09:07:45.246Z,27.7
2019-05-22T09:08:47.127Z,27.8
2019-05-22T09:09:49.561Z,27.9
2019-05-22T09:10:51.167Z,28
2019-05-22T09:11:53.604Z,27.8
2019-05-22T09:12:56.027Z,27.7
2019-05-22T09:13:58.478Z,27.9
2019-05-22T09:15:00.906Z,27.8
2019-05-22T09:16:03.096Z,27.9
2019-05-22T09:17:05.249Z,28
2019-05-22T09:18:07.867Z,27.7
2019-05-22T09:19:10.404Z,27.8
2019-05-22T09:20:14.017Z,27.9
2019-05-22T09:21:15.896Z,27.9
2019-05-22T09:22:18.105Z,28
2019-05-22T09:23:20.542Z,27.9
2019-05-22T09:24:22.967Z,27.7
2019-05-22T09:25:25.403Z,28
2019-05-22T09:26:27.595Z,27.8
2019-05-22T09:27:30.030Z,27.9
2019-05-22T09:28:31.706Z,27.9
2019-05-22T09:29:34.128Z,27.9
2019-05-22T09:30:36.283Z,27.8
2019-05-22T09:31:38.434Z,27.7
2019-05-22T09:32:41.138Z,27.5
2019-05-22T09:33:43.568Z,27.7
2019-05-22T09:34:45.734Z,27.8
2019-05-22T09:35:47.654Z,28
2019-05-22T09:36:50.096Z,27.6
2019-05-22T09:37:52.621Z,27.9
2019-05-22T09:38:55.135Z,27.9
2019-05-22T09:39:57.287Z,27.7
2019-05-22T09:40:59.458Z,27.7
2019-05-22T09:42:01.884Z,27.7
2019-05-22T09:43:04.116Z,27.9
2019-05-22T09:44:06.552Z,27.8
2019-05-22T09:45:08.981Z,27.9
2019-05-22T09:46:11.404Z,27.8
2019-05-22T09:47:13.835Z,27.8
2019-05-22T09:48:15.996Z,28.1
2019-05-22T09:49:18.144Z,27.7
2019-05-22T09:50:24.630Z,27.8
2019-05-22T09:51:26.836Z,28.1
2019-05-22T09:52:29.017Z,27.8
2019-05-22T09:53:31.462Z,27.8
2019-05-22T09:54:33.897Z,27.8
2019-05-22T09:55:36.324Z,27.8
2019-05-22T09:56:38.779Z,27.8
2019-05-22T09:57:40.948Z,27.8
2019-05-22T09:58:43.371Z,28
2019-05-22T09:59:45.520Z,28
2019-05-22T10:00:47.943Z,27.6
2019-05-22T10:01:50.402Z,27.7
2019-05-22T10:02:52.538Z,28.1
2019-05-22T10:03:54.695Z,27.8
2019-05-22T10:04:56.555Z,27.9
2019-05-22T10:05:58.957Z,28.1
2019-05-22T10:07:01.951Z,27.6
2019-05-22T10:08:04.383Z,28.1
2019-05-22T10:09:06.807Z,27.7
2019-05-22T10:10:09.237Z,27.9
2019-05-22T10:11:11.703Z,27.8
2019-05-22T10:12:14.140Z,27.9
2019-05-22T10:13:16.403Z,27.9
2019-05-22T10:14:18.844Z,27.7
2019-05-22T10:15:21.282Z,27.8
2019-05-22T10:16:24.096Z,27.6
2019-05-22T10:17:26.814Z,27.7
2019-05-22T10:18:28.716Z,27.9
2019-05-22T10:19:31.276Z,27.8
2019-05-22T10:20:33.724Z,27.8
2019-05-22T10:21:36.203Z,27.4
2019-05-22T10:22:38.820Z,27.9
2019-05-22T10:23:40.677Z,27.7
2019-05-22T10:24:42.820Z,27.9
2019-05-22T10:25:44.981Z,27.7
2019-05-22T10:26:47.404Z,27.8
2019-05-22T10:27:49.834Z,27.8
2019-05-22T10:28:52.050Z,27.6
2019-05-22T10:29:54.498Z,28
2019-05-22T10:30:57.839Z,27.7
2019-05-22T10:32:02.914Z,27.7
2019-05-22T10:33:05.086Z,27.8
2019-05-22T10:34:07.518Z,27.8
2019-05-22T10:35:09.662Z,27.7
2019-05-22T10:36:12.151Z,27.7
2019-05-22T10:37:14.576Z,27.8
2019-05-22T10:38:17.030Z,27.7
2019-05-22T10:39:19.491Z,27.8
2019-05-22T10:40:26.135Z,27.8
2019-05-22T10:41:28.300Z,27.8
2019-05-22T10:42:30.496Z,27.7
2019-05-22T10:43:32.934Z,27.9
2019-05-22T10:44:34.817Z,27.9
2019-05-22T10:45:36.953Z,27.8
2019-05-22T10:46:39.110Z,27.7
2019-05-22T10:47:41.541Z,27.8
2019-05-22T10:48:43.992Z,27.6
2019-05-22T10:49:47.031Z,27.8
2019-05-22T10:50:49.188Z,27.9
2019-05-22T10:51:51.624Z,27.7
2019-05-22T10:52:55.080Z,27.9
2019-05-22T10:53:57.316Z,27.8
2019-05-22T10:54:59.748Z,28
2019-05-22T10:56:02.195Z,27.8
2019-05-22T10:57:04.710Z,27.9
2019-05-22T10:58:07.144Z,27.7
2019-05-22T10:59:09.754Z,27.9
2019-05-22T11:00:11.929Z,27.7
2019-05-22T11:01:14.109Z,27.9
2019-05-22T11:02:16.567Z,27.7
2019-05-22T11:03:18.463Z,27.8
2019-05-22T11:04:20.926Z,27.7
2019-05-22T11:05:23.391Z,27.8
2019-05-22T11:06:25.833Z,28
2019-05-22T11:07:28.254Z,28.2
2019-05-22T11:08:34.277Z,27.9
2019-05-22T11:09:35.677Z,28
2019-05-22T11:10:38.314Z,27.6
2019-05-22T11:11:40.473Z,27.8
2019-05-22T11:12:42.618Z,27.8
2019-05-22T11:13:59.696Z,27.7
2019-05-22T11:14:50.118Z,27.8
2019-05-22T11:15:52.258Z,27.8
2019-05-22T11:16:54.474Z,27.9
2019-05-22T11:17:56.900Z,27.6
2019-05-22T11:18:58.775Z,27.8
2019-05-22T11:20:01.235Z,27.9
2019-05-22T11:21:03.666Z,27.8
2019-05-22T11:22:06.660Z,27.6
2019-05-22T11:23:09.837Z,27.6
2019-05-22T11:24:11.969Z,28
2019-05-22T11:25:14.385Z,28.1
2019-05-22T11:26:16.810Z,27.8
2019-05-22T11:27:19.236Z,27.7
2019-05-22T11:28:21.455Z,27.7
2019-05-22T11:29:23.914Z,27.8
2019-05-22T11:30:26.365Z,27.9
2019-05-22T11:31:28.504Z,27.8
2019-05-22T11:32:31.005Z,27.8
2019-05-22T11:33:34.276Z,27.9
2019-05-22T11:34:36.886Z,28.1
2019-05-22T11:35:39.330Z,27.8
2019-05-22T11:36:41.525Z,27.8
2019-05-22T11:37:43.954Z,27.6
2019-05-22T11:38:46.497Z,27.8
2019-05-22T11:39:48.645Z,28
2019-05-22T11:40:50.554Z,27.7
2019-05-22T11:41:52.989Z,27.7
2019-05-22T11:42:55.114Z,27.9
2019-05-22T11:43:57.578Z,27.8
2019-05-22T11:45:00.010Z,27.8
2019-05-22T11:46:02.218Z,27.7
2019-05-22T11:47:04.781Z,27.8
2019-05-22T11:48:06.935Z,27.7
2019-05-22T11:49:09.392Z,27.7
2019-05-22T11:50:11.607Z,27.8
2019-05-22T11:51:14.079Z,27.8
2019-05-22T11:52:15.949Z,27.9
2019-05-22T11:53:18.378Z,27.9
2019-05-22T11:54:20.809Z,27.7
2019-05-22T11:55:40.691Z,27.6
2019-05-22T11:56:28.216Z,27.8
2019-05-22T11:57:30.373Z,27.9
2019-05-22T11:58:32.808Z,27.5
2019-05-22T11:59:34.687Z,27.8
2019-05-22T12:00:36.960Z,27.8
2019-05-22T12:01:39.400Z,27.8
2019-05-22T12:02:41.827Z,27.9
2019-05-22T12:03:44.593Z,27.6
2019-05-22T12:04:48.572Z,27.9
2019-05-22T12:05:51.050Z,27.9
2019-05-22T12:06:54.070Z,27.8
2019-05-22T12:07:56.542Z,28.1
2019-05-22T12:08:58.918Z,27.8
2019-05-22T12:10:01.352Z,27.7
2019-05-22T12:11:03.298Z,27.7
2019-05-22T12:12:05.862Z,27.6
2019-05-22T12:13:07.999Z,28.1
2019-05-22T12:14:12.753Z,27.9
2019-05-22T12:15:15.118Z,27.8
2019-05-22T12:16:17.558Z,27.7
2019-05-22T12:17:36.551Z,28
2019-05-22T12:18:25.004Z,27.9
2019-05-22T12:19:27.725Z,27.8
2019-05-22T12:20:30.264Z,28.1
2019-05-22T12:21:32.703Z,27.9
2019-05-22T12:22:35.140Z,27.8
2019-05-22T12:23:37.575Z,27.9
2019-05-22T12:24:40.006Z,27.8
2019-05-22T12:25:42.142Z,27.9
2019-05-22T12:26:44.573Z,27.8
2019-05-22T12:27:47.013Z,27.9
2019-05-22T12:28:49.435Z,27.6
2019-05-22T12:29:51.865Z,28.1
2019-05-22T12:30:55.110Z,27.9
2019-05-22T12:31:57.557Z,27.9
2019-05-22T12:33:00.391Z,27.8
2019-05-22T12:34:02.616Z,27.7
2019-05-22T12:35:05.060Z,27.8
2019-05-22T12:36:07.478Z,27.9
2019-05-22T12:37:09.973Z,28
2019-05-22T12:38:12.383Z,28
2019-05-22T12:39:14.275Z,28
2019-05-22T12:40:16.791Z,28.1
2019-05-22T12:41:19.223Z,27.9
2019-05-22T12:42:20.844Z,27.9
2019-05-22T12:43:23.259Z,27.8
2019-05-22T12:44:25.686Z,27.7
2019-05-22T12:45:28.361Z,27.9
2019-05-22T12:46:30.784Z,27.9
2019-05-22T12:47:33.216Z,27.8
2019-05-22T12:48:35.370Z,27.8
2019-05-22T12:49:37.513Z,27.9
2019-05-22T12:50:39.673Z,27.8
2019-05-22T12:51:42.186Z,27.9
2019-05-22T12:52:44.675Z,27.9
2019-05-22T12:53:47.104Z,27.9
2019-05-22T12:54:52.555Z,27.8
2019-05-22T12:55:54.652Z,27.8
2019-05-22T12:56:57.075Z,27.9
2019-05-22T12:57:58.954Z,27.7
2019-05-22T12:59:01.423Z,27.9
2019-05-22T13:00:03.874Z,27.6
2019-05-22T13:01:06.145Z,28.1
2019-05-22T13:02:08.565Z,27.8
2019-05-22T13:03:10.736Z,27.7
2019-05-22T13:04:13.176Z,27.8
2019-05-22T13:05:15.396Z,27.8
2019-05-22T13:06:17.308Z,27.7
2019-05-22T13:07:19.826Z,28
2019-05-22T13:08:22.238Z,28
2019-05-22T13:09:24.660Z,27.7
2019-05-22T13:10:26.568Z,27.7
2019-05-22T13:11:29.052Z,27.8
2019-05-22T13:12:31.499Z,27.9
2019-05-22T13:13:34.178Z,27.8
2019-05-22T13:14:36.323Z,27.7
2019-05-22T13:15:38.807Z,27.9
2019-05-22T13:16:45.518Z,27.8
2019-05-22T13:17:45.727Z,27.8
2019-05-22T13:18:47.627Z,27.9
2019-05-22T13:19:49.852Z,27.6
2019-05-22T13:20:52.545Z,27.9
2019-05-22T13:21:55.317Z,27.9
2019-05-22T13:22:57.749Z,27.7
2019-05-22T13:24:00.917Z,27.7
2019-05-22T13:25:03.975Z,27.9
2019-05-22T13:26:06.413Z,27.6
2019-05-22T13:27:08.652Z,27.8
2019-05-22T13:28:11.084Z,27.8
2019-05-22T13:29:13.518Z,27.9
2019-05-22T13:30:15.942Z,27.9
2019-05-22T13:31:18.375Z,27.5
2019-05-22T13:32:20.815Z,27.5
2019-05-22T13:33:23.254Z,27.9
2019-05-22T13:34:25.727Z,27.9
2019-05-22T13:35:28.156Z,28.1
2019-05-22T13:36:30.634Z,28
2019-05-22T13:37:33.079Z,27.7
2019-05-22T13:38:35.514Z,27.5
2019-05-22T13:39:37.577Z,27.8
2019-05-22T13:40:39.745Z,27.8
2019-05-22T13:41:42.272Z,27.9
2019-05-22T13:42:43.867Z,27.7
2019-05-22T13:43:45.746Z,27.9
2019-05-22T13:44:48.169Z,27.9
2019-05-22T13:45:50.054Z,27.8
2019-05-22T13:46:52.492Z,27.8
2019-05-22T13:47:54.673Z,27.7
2019-05-22T13:48:56.814Z,27.7
2019-05-22T13:49:58.674Z,27.6
2019-05-22T13:51:00.853Z,27.4
2019-05-22T13:52:03.276Z,27.6
2019-05-22T13:53:05.760Z,27.9
2019-05-22T13:54:07.914Z,27.9
2019-05-22T13:55:10.539Z,27.5
2019-05-22T13:56:12.960Z,27.9
2019-05-22T13:57:15.755Z,27.7
2019-05-22T13:58:17.965Z,27.9
2019-05-22T13:59:20.133Z,27.7
2019-05-22T14:00:22.567Z,27.9